createdAt,value
2023-01-18T00:00:40.453Z,34.62
2023-01-18T00:03:13.099Z,34.72
2023-01-18T00:05:42.122Z,34.82
2023-01-18T00:08:09.423Z,34.61
2023-01-18T00:10:36.252Z,34.53
2023-01-18T00:13:03.790Z,34.79
2023-01-18T00:15:33.591Z,34.89
2023-01-18T00:18:00.510Z,34.71
2023-01-18T00:20:29.080Z,34.86
2023-01-18T00:22:56.707Z,34.85
2023-01-18T00:25:24.611Z,34.77
2023-01-18T00:27:55.150Z,34.72
2023-01-18T00:30:24.972Z,34.70
2023-01-18T00:32:57.953Z,34.87
2023-01-18T00:35:25.625Z,34.48
2023-01-18T00:37:54.078Z,34.54
2023-01-18T00:40:22.215Z,34.71
2023-01-18T00:43:07.327Z,34.86
2023-01-18T00:45:34.144Z,34.72
2023-01-18T00:48:02.573Z,34.40
2023-01-18T00:50:29.388Z,34.46
2023-01-18T00:52:58.633Z,34.49
2023-01-18T00:55:26.288Z,34.71
2023-01-18T00:57:52.817Z,34.38
2023-01-18T01:00:19.493Z,34.71
2023-01-18T01:02:46.031Z,34.26
2023-01-18T01:05:40.063Z,34.25
2023-01-18T01:08:07.251Z,34.66
2023-01-18T01:10:36.629Z,34.33
2023-01-18T01:13:21.995Z,34.34
2023-01-18T01:16:07.132Z,34.51
2023-01-18T01:18:52.162Z,34.60
2023-01-18T01:21:37.334Z,34.43
2023-01-18T01:24:23.120Z,34.68
2023-01-18T01:26:49.654Z,34.49
2023-01-18T01:29:16.813Z,34.46
2023-01-18T01:31:43.509Z,34.30
2023-01-18T01:34:10.236Z,34.27
2023-01-18T01:36:36.909Z,34.22
2023-01-18T01:39:03.864Z,34.40
2023-01-18T01:41:32.745Z,34.50
2023-01-18T01:44:04.478Z,34.48
2023-01-18T01:46:46.398Z,34.18
2023-01-18T01:49:20.998Z,34.19
2023-01-18T01:51:52.560Z,34.22
2023-01-18T01:54:27.516Z,34.19
2023-01-18T01:57:06.029Z,34.26
2023-01-18T01:59:40.855Z,34.19
2023-01-18T02:02:07.606Z,34.46
2023-01-18T02:04:35.318Z,34.05
2023-01-18T02:07:02.134Z,34.07
2023-01-18T02:09:28.770Z,33.98
2023-01-18T02:11:55.580Z,33.90
2023-01-18T02:14:27.022Z,33.89
2023-01-18T02:16:53.594Z,33.97
2023-01-18T02:19:23.076Z,34.18
2023-01-18T02:22:01.953Z,33.88
2023-01-18T02:24:59.196Z,33.96
2023-01-18T02:27:31.835Z,34.03
2023-01-18T02:30:14.564Z,33.81
2023-01-18T02:32:52.972Z,33.86
2023-01-18T02:35:36.758Z,33.92
2023-01-18T02:38:10.012Z,33.90
2023-01-18T02:40:59.833Z,34.05
2023-01-18T02:43:46.467Z,33.88
2023-01-18T02:46:30.753Z,33.78
2023-01-18T02:48:58.911Z,34.07
2023-01-18T02:51:25.500Z,33.92
2023-01-18T02:53:52.327Z,33.94
2023-01-18T02:56:50.245Z,33.69
2023-01-18T02:59:26.923Z,33.69
2023-01-18T03:02:02.691Z,33.83
2023-01-18T03:04:34.354Z,33.83
2023-01-18T03:07:11.332Z,33.81
2023-01-18T03:09:40.163Z,33.64
2023-01-18T03:12:21.644Z,33.97
2023-01-18T03:15:08.434Z,33.58
2023-01-18T03:17:42.193Z,33.90
2023-01-18T03:20:15.554Z,33.89
2023-01-18T03:23:10.089Z,33.58
2023-01-18T03:25:41.250Z,33.50
2023-01-18T03:28:31.541Z,33.50
2023-01-18T03:31:20.211Z,33.81
2023-01-18T03:33:55.741Z,33.55
2023-01-18T03:36:33.586Z,33.38
2023-01-18T03:39:05.249Z,33.61
2023-01-18T03:41:39.744Z,33.66
2023-01-18T03:44:14.167Z,33.83
2023-01-18T03:46:43.676Z,33.35
2023-01-18T03:49:11.341Z,33.41
2023-01-18T03:52:01.723Z,33.54
2023-01-18T03:54:53.444Z,33.58
2023-01-18T03:57:28.787Z,33.67
2023-01-18T03:59:56.568Z,33.58
2023-01-18T04:02:24.119Z,33.62
2023-01-18T04:04:55.227Z,34.00
2023-01-18T04:07:21.896Z,34.26
2023-01-18T04:09:48.532Z,34.26
2023-01-18T04:12:15.180Z,34.62
2023-01-18T04:14:41.670Z,35.16
2023-01-18T04:17:08.314Z,34.79
2023-01-18T04:19:34.931Z,35.14
2023-01-18T04:22:01.531Z,35.20
2023-01-18T04:24:29.391Z,35.22
2023-01-18T04:26:56.026Z,35.19
2023-01-18T04:29:22.570Z,34.86
2023-01-18T04:31:49.202Z,34.99
2023-01-18T04:34:15.897Z,34.58
2023-01-18T04:36:42.554Z,34.49
2023-01-18T04:39:13.031Z,34.97
2023-01-18T04:41:39.692Z,34.81
2023-01-18T04:44:06.293Z,34.47
2023-01-18T04:46:33.014Z,34.54
2023-01-18T04:49:01.908Z,34.38
2023-01-18T04:51:31.226Z,34.73
2023-01-18T04:53:59.356Z,34.53
2023-01-18T04:56:26.205Z,34.50
2023-01-18T04:58:54.543Z,34.30
2023-01-18T05:01:22.110Z,34.00
2023-01-18T05:03:49.212Z,34.20
2023-01-18T05:06:16.648Z,34.11
2023-01-18T05:08:43.248Z,34.18
2023-01-18T05:11:12.419Z,34.29
2023-01-18T05:13:40.130Z,34.14
2023-01-18T05:16:07.995Z,34.35
2023-01-18T05:18:34.682Z,34.20
2023-01-18T05:21:01.328Z,34.34
2023-01-18T05:23:27.834Z,34.38
2023-01-18T05:25:56.193Z,34.48
2023-01-18T05:28:24.622Z,34.72
2023-01-18T05:30:51.851Z,35.00
2023-01-18T05:33:19.318Z,34.65
2023-01-18T05:35:54.125Z,34.98
2023-01-18T05:38:22.239Z,35.00
2023-01-18T05:40:52.505Z,35.69
2023-01-18T05:43:20.497Z,35.95
2023-01-18T05:45:47.117Z,35.66
2023-01-18T05:48:13.768Z,35.41
2023-01-18T05:50:44.686Z,35.59
2023-01-18T05:53:18.245Z,35.76
2023-01-18T05:55:54.053Z,35.43
2023-01-18T05:58:20.846Z,35.90
2023-01-18T06:00:47.430Z,35.57
2023-01-18T06:03:16.563Z,35.59
2023-01-18T06:05:43.134Z,35.91
2023-01-18T06:08:09.776Z,35.58
2023-01-18T06:10:36.382Z,35.43
2023-01-18T06:13:03.111Z,35.37
2023-01-18T06:15:29.668Z,35.82
2023-01-18T06:17:56.328Z,36.19
2023-01-18T06:20:22.894Z,36.64
2023-01-18T06:22:49.529Z,36.63
2023-01-18T06:25:16.717Z,36.73
2023-01-18T06:27:43.376Z,38.45
2023-01-18T06:30:11.111Z,41.50
2023-01-18T06:32:37.821Z,44.13
2023-01-18T06:35:04.802Z,45.16
2023-01-18T06:37:31.440Z,45.30
2023-01-18T06:39:58.445Z,44.27
2023-01-18T06:42:25.139Z,43.30
2023-01-18T06:44:51.694Z,42.96
2023-01-18T06:47:20.067Z,42.45
2023-01-18T06:49:50.136Z,42.06
2023-01-18T06:52:16.821Z,41.59
2023-01-18T06:54:44.696Z,41.37
2023-01-18T06:57:12.265Z,41.03
2023-01-18T06:59:39.653Z,40.82
2023-01-18T07:02:07.165Z,40.42
2023-01-18T07:04:37.861Z,40.41
2023-01-18T07:07:04.630Z,40.29
2023-01-18T07:09:31.145Z,40.20
2023-01-18T07:11:57.863Z,39.75
2023-01-18T07:14:24.396Z,39.59
2023-01-18T07:16:51.002Z,39.66
2023-01-18T07:19:17.608Z,39.31
2023-01-18T07:21:44.628Z,39.23
2023-01-18T07:24:11.588Z,38.92
2023-01-18T07:26:38.460Z,38.93
2023-01-18T07:29:05.051Z,38.54
2023-01-18T07:31:31.836Z,38.36
2023-01-18T07:33:58.615Z,38.26
2023-01-18T07:36:25.211Z,38.43
2023-01-18T07:38:52.265Z,36.25
2023-01-18T07:41:19.239Z,33.54
2023-01-18T07:43:46.107Z,32.44
2023-01-18T07:46:16.913Z,31.68
2023-01-18T07:48:44.832Z,32.04
2023-01-18T07:51:11.785Z,31.86
2023-01-18T07:53:39.027Z,31.98
2023-01-18T07:56:12.673Z,32.32
2023-01-18T07:58:39.814Z,33.22
2023-01-18T08:01:15.169Z,34.93
2023-01-18T08:03:43.443Z,35.90
2023-01-18T08:06:10.375Z,36.22
2023-01-18T08:08:37.299Z,36.59
2023-01-18T08:11:06.162Z,36.74
2023-01-18T08:13:33.548Z,36.33
2023-01-18T08:16:02.486Z,36.43
2023-01-18T08:18:31.928Z,36.38
2023-01-18T08:20:59.032Z,36.27
2023-01-18T08:23:26.226Z,35.91
2023-01-18T08:25:53.196Z,36.24
2023-01-18T08:28:19.919Z,36.36
2023-01-18T08:30:50.949Z,36.40
2023-01-18T08:33:17.582Z,36.37
2023-01-18T08:35:46.565Z,36.10
2023-01-18T08:38:15.678Z,36.27
2023-01-18T08:40:43.305Z,36.55
2023-01-18T08:43:10.929Z,36.67
2023-01-18T08:45:38.402Z,36.51
2023-01-18T08:48:07.710Z,36.84
2023-01-18T08:50:35.577Z,37.11
2023-01-18T08:53:02.903Z,37.46
2023-01-18T08:55:30.132Z,37.59
2023-01-18T08:57:58.173Z,37.89
2023-01-18T09:00:30.198Z,38.26
2023-01-18T09:02:58.215Z,38.21
2023-01-18T09:05:26.967Z,38.26
2023-01-18T09:07:55.255Z,38.54
2023-01-18T09:10:22.589Z,38.59
2023-01-18T09:12:49.448Z,38.97
2023-01-18T09:15:16.164Z,39.09
2023-01-18T09:17:42.851Z,39.31
2023-01-18T09:20:11.940Z,39.42
2023-01-18T09:22:39.475Z,39.59
2023-01-18T09:25:06.805Z,39.64
2023-01-18T09:27:33.710Z,39.52
2023-01-18T09:30:00.516Z,39.76
2023-01-18T09:32:27.474Z,39.89
2023-01-18T09:34:57.725Z,40.24
2023-01-18T09:39:51.475Z,40.02
2023-01-18T09:42:22.546Z,40.00
2023-01-18T09:44:58.577Z,40.01
2023-01-18T09:47:39.952Z,40.33
2023-01-18T09:50:16.243Z,40.23
2023-01-18T09:53:20.031Z,40.51
2023-01-18T09:56:21.156Z,40.29
2023-01-18T10:01:14.470Z,40.42
2023-01-18T10:03:57.983Z,40.75
2023-01-18T10:06:29.367Z,40.63
2023-01-18T10:09:04.351Z,40.86
2023-01-18T10:11:44.703Z,40.65
2023-01-18T10:14:16.875Z,40.88
2023-01-18T10:16:43.439Z,40.73
2023-01-18T10:19:22.533Z,40.99
2023-01-18T10:22:05.208Z,41.14
2023-01-18T10:24:42.643Z,40.94
2023-01-18T10:27:15.519Z,40.98
2023-01-18T10:30:14.204Z,41.28
2023-01-18T10:32:51.675Z,41.13
2023-01-18T10:35:30.861Z,40.97
2023-01-18T10:38:03.706Z,40.73
2023-01-18T10:40:30.394Z,40.45
2023-01-18T10:43:01.521Z,40.75
2023-01-18T10:45:31.898Z,40.39
2023-01-18T10:48:29.668Z,40.49
2023-01-18T10:51:05.865Z,40.62
2023-01-18T10:53:39.408Z,40.87
2023-01-18T10:56:26.539Z,40.69
2023-01-18T10:58:55.536Z,40.89
2023-01-18T11:01:53.058Z,40.93
2023-01-18T11:04:28.061Z,41.12
2023-01-18T11:06:57.478Z,41.27
2023-01-18T11:09:46.849Z,41.25
2023-01-18T11:12:34.983Z,41.39
2023-01-18T11:15:13.671Z,41.10
2023-01-18T11:18:00.332Z,41.05
2023-01-18T11:20:37.727Z,41.44
2023-01-18T11:23:07.629Z,41.39
2023-01-18T11:25:41.404Z,41.42
2023-01-18T11:28:20.001Z,41.28
2023-01-18T11:30:56.855Z,41.31
2023-01-18T11:33:25.949Z,41.52
2023-01-18T11:35:55.174Z,41.24
2023-01-18T11:38:27.990Z,41.24
2023-01-18T11:41:06.233Z,41.32
2023-01-18T11:43:36.083Z,41.47
2023-01-18T11:46:20.850Z,41.61
2023-01-18T11:48:52.826Z,41.48
2023-01-18T11:51:22.603Z,41.38
2023-01-18T11:54:01.456Z,41.19
2023-01-18T11:56:51.953Z,41.63
2023-01-18T11:59:25.988Z,41.38
2023-01-18T12:01:52.533Z,41.39
2023-01-18T12:04:33.530Z,41.68
2023-01-18T12:07:18.969Z,41.63
2023-01-18T12:09:54.458Z,41.56
2023-01-18T12:12:53.418Z,41.42
2023-01-18T12:15:51.945Z,41.63
2023-01-18T12:18:38.250Z,41.61
2023-01-18T12:21:24.630Z,41.78
2023-01-18T12:24:09.554Z,41.60
2023-01-18T12:26:57.996Z,41.57
2023-01-18T12:29:33.862Z,41.36
2023-01-18T12:32:06.979Z,41.20
2023-01-18T12:35:15.611Z,41.13
2023-01-18T12:38:19.026Z,40.96
2023-01-18T12:40:54.642Z,41.05
2023-01-18T12:43:21.184Z,41.12
2023-01-18T12:45:54.241Z,41.28
2023-01-18T12:48:28.151Z,41.59
2023-01-18T12:50:56.629Z,41.79
2023-01-18T12:53:39.696Z,41.65
2023-01-18T12:56:22.715Z,41.37
2023-01-18T12:58:56.310Z,41.34
2023-01-18T13:01:27.099Z,41.04
2023-01-18T13:04:01.852Z,40.89
2023-01-18T13:06:29.915Z,40.52
2023-01-18T13:09:18.691Z,40.40
2023-01-18T13:11:46.021Z,40.34
2023-01-18T13:14:33.456Z,40.06
2023-01-18T13:17:02.839Z,40.39
2023-01-18T13:19:42.976Z,40.14
2023-01-18T13:22:19.437Z,40.42
2023-01-18T13:25:09.020Z,40.44
2023-01-18T13:27:37.798Z,40.57
2023-01-18T13:30:24.773Z,40.83
2023-01-18T13:32:52.169Z,40.99
2023-01-18T13:35:25.872Z,41.08
2023-01-18T13:37:56.571Z,41.13
2023-01-18T13:40:31.138Z,41.36
2023-01-18T13:42:59.900Z,41.60
2023-01-18T13:45:30.417Z,41.76
2023-01-18T13:48:07.761Z,41.69
2023-01-18T13:50:36.865Z,41.66
2023-01-18T13:53:15.669Z,41.92
2023-01-18T13:56:25.732Z,42.10
2023-01-18T13:59:01.576Z,42.13
2023-01-18T14:01:33.039Z,42.22
2023-01-18T14:04:17.332Z,42.25
2023-01-18T14:06:45.517Z,42.29
2023-01-18T14:09:15.013Z,42.32
2023-01-18T14:11:54.310Z,42.04
2023-01-18T14:14:20.880Z,42.42
2023-01-18T14:17:16.386Z,42.26
2023-01-18T14:19:49.027Z,42.43
2023-01-18T14:22:34.493Z,42.54
2023-01-18T14:25:26.213Z,42.55
2023-01-18T14:28:25.762Z,42.17
2023-01-18T14:30:58.491Z,42.33
2023-01-18T14:33:37.599Z,42.51
2023-01-18T14:36:08.309Z,42.56
2023-01-18T14:38:35.145Z,42.50
2023-01-18T14:41:08.626Z,42.75
2023-01-18T14:43:41.645Z,42.87
2023-01-18T14:46:16.188Z,42.93
2023-01-18T14:48:57.201Z,42.62
2023-01-18T14:51:26.632Z,42.56
2023-01-18T14:53:57.853Z,42.15
2023-01-18T14:56:29.185Z,41.55
2023-01-18T15:01:28.937Z,40.73
2023-01-18T15:03:57.555Z,40.81
2023-01-18T15:06:32.202Z,40.58
2023-01-18T15:08:59.278Z,40.40
2023-01-18T15:11:26.686Z,40.26
2023-01-18T15:13:57.129Z,40.15
2023-01-18T15:16:30.356Z,40.20
2023-01-18T15:18:58.816Z,40.06
2023-01-18T15:21:30.183Z,39.93
2023-01-18T15:24:04.766Z,39.93
2023-01-18T15:26:55.851Z,39.61
2023-01-18T15:29:27.966Z,39.89
2023-01-18T15:32:16.691Z,39.48
2023-01-18T15:34:46.648Z,39.35
2023-01-18T15:37:27.502Z,39.52
2023-01-18T15:39:57.817Z,39.29
2023-01-18T15:42:37.063Z,39.25
2023-01-18T15:45:04.682Z,39.12
2023-01-18T15:47:36.747Z,38.85
2023-01-18T15:50:15.618Z,38.88
2023-01-18T15:52:45.613Z,38.82
2023-01-18T15:55:48.027Z,38.81
2023-01-18T15:58:55.819Z,38.83
2023-01-18T16:01:34.012Z,38.63
2023-01-18T16:04:21.790Z,38.48
2023-01-18T16:06:51.974Z,38.64
2023-01-18T16:09:21.661Z,38.54
2023-01-18T16:11:52.692Z,38.33
2023-01-18T16:14:28.300Z,38.64
2023-01-18T16:17:07.478Z,38.26
2023-01-18T16:19:49.168Z,38.32
2023-01-18T16:22:29.479Z,38.33
2023-01-18T16:24:57.735Z,38.20
2023-01-18T16:27:26.502Z,37.89
2023-01-18T16:30:00.327Z,37.82
2023-01-18T16:32:29.813Z,37.72
2023-01-18T16:34:59.781Z,37.51
2023-01-18T16:37:26.730Z,37.42
2023-01-18T16:39:55.262Z,37.22
2023-01-18T16:42:29.622Z,37.19
2023-01-18T16:45:04.311Z,37.63
2023-01-18T16:47:30.818Z,37.70
